Siam — SGIP — position and weather

sailwx.info

Track history (hours):
 
Tides and Currents Weather Stations Pressure Air Temp Water Temp Dewpoint Dewpoint Depression Visibility Wind Speed Wind Dir Waves Ship Positions

Siam

Last reported at 2017-Feb-27 04:33 UTC. Time now 2017-Feb-27 04:36 UTC.
Position N 55°60' E 012°45'.

Length 22 m.

Type: Passenger vessel. MMSI: 265572320.

Date/timePositionNaut miles runAvg speedWind from/ knotsBaromVisibWave heightAir tempDewpointWater temp
2017-Feb-27 04:33N 55°60' E 012°45'0 0.0
2017-Feb-27 03:33N 55°60' E 012°45'0 0.0
2017-Feb-27 02:33N 55°60' E 012°45'0 0.0
2017-Feb-27 01:33N 55°60' E 012°45'0 0.0
2017-Feb-27 00:33N 55°60' E 012°45'0 0.0
2017-Feb-26 23:33N 55°60' E 012°45'0 0.0
2017-Feb-26 22:33N 55°60' E 012°45'0 0.0
2017-Feb-26 21:30N 55°60' E 012°45'0 0.0
2017-Feb-26 20:33N 55°60' E 012°45'0 0.0
2017-Feb-26 19:30N 55°60' E 012°45'0 0.0
2017-Feb-26 18:33N 55°60' E 012°45'0 0.0
2017-Feb-26 17:33N 55°60' E 012°45'0 0.0
2017-Feb-26 16:30N 55°60' E 012°45'0 0.0
2017-Feb-26 15:33N 55°60' E 012°45'0 0.0
2017-Feb-26 14:33N 55°60' E 012°45'3 2.9
2017-Feb-26 13:33N 56°02' E 012°41'2 1.6
2017-Feb-26 12:31N 56°03' E 012°39'0 0.1
2017-Feb-26 11:31N 56°03' E 012°39'3 2.8
2017-Feb-26 10:27N 56°05' E 012°36'4 1.4
2017-Feb-26 07:33N 56°02' E 012°41'3 3.4
2017-Feb-26 06:33N 55°60' E 012°45'0 0.0
2017-Feb-26 05:33N 55°60' E 012°45'0 0.0
2017-Feb-26 04:33N 55°60' E 012°45'0 0.0
2017-Feb-26 03:24N 55°60' E 012°45'0 0.0
2017-Feb-26 02:33N 55°60' E 012°45'0 0.0
2017-Feb-26 01:30N 55°60' E 012°45'0 0.0
2017-Feb-26 00:33N 55°60' E 012°45'0 0.0
2017-Feb-25 23:30N 55°60' E 012°45'0 0.0
2017-Feb-25 22:30N 55°60' E 012°45'0 0.0
2017-Feb-25 21:33N 55°60' E 012°45'0 0.0
2017-Feb-25 20:30N 55°60' E 012°45'0 0.0
2017-Feb-25 19:33N 55°60' E 012°45'0 0.0
2017-Feb-25 18:33N 55°60' E 012°45'0 0.0
2017-Feb-25 17:33N 55°60' E 012°45'0 0.0
2017-Feb-25 16:27N 55°60' E 012°45'0 0.0
2017-Feb-25 15:30N 55°60' E 012°45'0 0.0
2017-Feb-25 14:18N 55°60' E 012°45'2 2.3
2017-Feb-25 13:32N 56°00' E 012°42'0 0.4
2017-Feb-25 12:31N 55°60' E 012°42'3 3.0
2017-Feb-25 11:33N 55°57' E 012°42'2 2.1
2017-Feb-25 10:33N 55°57' E 012°38'4 4.1
2017-Feb-25 09:31N 56°01' E 012°42'0 0.2
2017-Feb-25 08:31N 56°00' E 012°42'2 1.8
2017-Feb-25 07:32N 55°60' E 012°45'0 0.0
2017-Feb-25 06:32N 55°60' E 012°45'0 0.0
2017-Feb-25 05:32N 55°60' E 012°45'0 0.0
2017-Feb-25 04:32N 55°60' E 012°45'0 0.0
2017-Feb-25 03:32N 55°60' E 012°45'0 0.0
2017-Feb-25 02:29N 55°60' E 012°45'0 0.0
2017-Feb-25 01:32N 55°60' E 012°45'0 0.0
2017-Feb-25 00:32N 55°60' E 012°45'0 0.0
2017-Feb-24 23:32N 55°60' E 012°45'0 0.0
2017-Feb-24 22:32N 55°60' E 012°45'0 0.0
2017-Feb-24 21:32N 55°60' E 012°45'0 0.0
2017-Feb-24 20:32N 55°60' E 012°45'0 0.0
2017-Feb-24 19:32N 55°60' E 012°45'0 0.0
2017-Feb-24 18:32N 55°60' E 012°45'2 0.4
2017-Feb-24 12:33N 55°58' E 012°43'2 1.7
2017-Feb-24 11:33N 55°59' E 012°42'0 0.3
2017-Feb-24 10:33N 55°59' E 012°42'1 1.0
2017-Feb-24 09:33N 55°58' E 012°43'0 0.4
2017-Feb-24 08:32N 55°59' E 012°42'1 0.0
2017-Feb-22 23:33N 55°60' E 012°45'0 0.0
2017-Feb-22 22:33N 55°60' E 012°45'0 0.0
2017-Feb-22 21:33N 55°60' E 012°45'0 0.0
2017-Feb-22 20:33N 55°60' E 012°45'0 0.0
2017-Feb-22 19:24N 55°60' E 012°45'0 0.0
2017-Feb-22 18:33N 55°60' E 012°45'0 0.0
2017-Feb-22 17:27N 55°60' E 012°45'0 0.0
2017-Feb-22 16:33N 55°60' E 012°45'0 0.0
2017-Feb-22 15:33N 55°60' E 012°45'0 0.0
2017-Feb-22 14:33N 55°60' E 012°45'0 0.0
2017-Feb-22 13:27N 55°60' E 012°45'0 0.0
2017-Feb-22 12:33N 55°60' E 012°45'0 0.0
2017-Feb-22 11:33N 55°60' E 012°45'0 0.0
2017-Feb-22 10:33N 55°60' E 012°45'0 0.0
2017-Feb-22 09:33N 55°60' E 012°45'0 0.0
2017-Feb-22 08:30N 55°60' E 012°45'0 0.0
2017-Feb-22 07:27N 55°60' E 012°45'0 0.0
2017-Feb-22 06:33N 55°60' E 012°45'0 0.0
2017-Feb-22 05:33N 55°60' E 012°45'0 0.0
2017-Feb-22 04:33N 55°60' E 012°45'0 0.0
2017-Feb-22 03:33N 55°60' E 012°45'0 0.0
2017-Feb-22 02:33N 55°60' E 012°45'0 0.0
2017-Feb-22 01:33N 55°60' E 012°45'0 0.0
2017-Feb-22 00:33N 55°60' E 012°45'0 0.0
2017-Feb-21 23:33N 55°60' E 012°45'0 0.0
2017-Feb-21 22:33N 55°60' E 012°45'0 0.0
2017-Feb-21 21:33N 55°60' E 012°45'0 0.0
2017-Feb-21 20:33N 55°60' E 012°45'0 0.0
2017-Feb-21 19:33N 55°60' E 012°45'0 0.0
2017-Feb-21 18:27N 55°60' E 012°45'0 0.0
2017-Feb-21 17:33N 55°60' E 012°45'0 0.0
2017-Feb-21 16:24N 55°60' E 012°45'0 0.0
2017-Feb-21 15:33N 55°60' E 012°45'0 0.0
2017-Feb-21 14:27N 55°60' E 012°45'0 0.0
2017-Feb-21 13:33N 55°60' E 012°45'0 0.0
2017-Feb-21 12:33N 55°60' E 012°45'0 0.0
2017-Feb-21 11:33N 55°60' E 012°45'0 0.0
2017-Feb-21 10:30N 55°60' E 012°45'0 0.0
2017-Feb-21 09:33N 55°60' E 012°45'0 0.0
2017-Feb-21 08:33N 55°60' E 012°45'0 0.0
2017-Feb-21 07:33N 55°60' E 012°45'0 0.0
2017-Feb-21 06:30N 55°60' E 012°45'0 0.0
2017-Feb-21 05:33N 55°60' E 012°45'0 0.0
2017-Feb-21 04:33N 55°60' E 012°45'0 0.0
2017-Feb-21 03:33N 55°60' E 012°45'0 0.0
2017-Feb-21 02:30N 55°60' E 012°45'0 0.0
2017-Feb-21 01:33N 55°60' E 012°45'0 0.0
2017-Feb-21 00:30N 55°60' E 012°45'0 0.0
2017-Feb-20 23:30N 55°60' E 012°45'0 0.0
2017-Feb-20 22:33N 55°60' E 012°45'0 0.0
2017-Feb-20 21:30N 55°60' E 012°45'0 0.0
2017-Feb-20 20:33N 55°60' E 012°45'0 0.0
2017-Feb-20 19:33N 55°60' E 012°45'0 0.0
2017-Feb-20 18:33N 55°60' E 012°45'0 0.0
2017-Feb-20 17:33N 55°60' E 012°45'0 0.0
2017-Feb-20 16:33N 55°60' E 012°45'0 0.0
2017-Feb-20 15:33N 55°60' E 012°45'4 3.8
2017-Feb-20 14:33N 55°59' E 012°38'0 0.3
2017-Feb-20 13:32N 55°59' E 012°37'0 0.3
2017-Feb-20 12:33N 55°58' E 012°37'4 4.4
2017-Feb-20 11:33N 55°60' E 012°45'0 0.0
2017-Feb-20 10:31N 55°60' E 012°45'0 0.0
2017-Feb-20 09:33N 55°60' E 012°45'0 0.0
2017-Feb-20 08:31N 55°60' E 012°45'0 0.0
2017-Feb-20 07:34N 55°60' E 012°45'0 0.0
2017-Feb-20 06:34N 55°60' E 012°45'0 0.0
2017-Feb-20 05:31N 55°60' E 012°45'0 0.0
2017-Feb-20 04:31N 55°60' E 012°45'0 0.0
2017-Feb-20 03:31N 55°60' E 012°45'0 0.0
2017-Feb-20 02:31N 55°60' E 012°45'0 0.0
2017-Feb-20 01:31N 55°60' E 012°45'0 0.0
2017-Feb-20 00:31N 55°60' E 012°45'0 0.0
2017-Feb-19 23:31N 55°60' E 012°45'0 0.0
2017-Feb-19 22:31N 55°60' E 012°45'0 0.0
2017-Feb-19 21:31N 55°60' E 012°45'0 0.0
2017-Feb-19 20:31N 55°60' E 012°45'0 0.0
2017-Feb-19 19:31N 55°60' E 012°45'0 0.0
2017-Feb-19 18:31N 55°60' E 012°45'0 0.0
2017-Feb-19 17:31N 55°60' E 012°45'0 0.0
2017-Feb-19 16:31N 55°60' E 012°45'0 0.0
2017-Feb-19 15:22N 55°60' E 012°45'0 0.0
2017-Feb-19 14:31N 55°60' E 012°45'0 0.0
2017-Feb-19 13:31N 55°60' E 012°45'0 0.0
2017-Feb-19 12:31N 55°60' E 012°45'0 0.0
2017-Feb-19 11:31N 55°60' E 012°45'6 5.9
2017-Feb-19 10:28N 55°53' E 012°45'3 3.6
2017-Feb-19 09:32N 55°50' E 012°46'0 0.5
2017-Feb-19 08:29N 55°50' E 012°46'6 6.8
2017-Feb-19 07:33N 55°56' E 012°44'4 3.7
2017-Feb-19 06:32N 55°60' E 012°45'0 0.0
2017-Feb-19 05:32N 55°60' E 012°45'0 0.0
2017-Feb-19 04:29N 55°60' E 012°45'0 0.0
2017-Feb-19 03:32N 55°60' E 012°45'0 0.0
2017-Feb-19 02:29N 55°60' E 012°45'0 0.0
2017-Feb-19 01:32N 55°60' E 012°45'0 0.0
2017-Feb-19 00:32N 55°60' E 012°45'0 0.0
2017-Feb-18 23:32N 55°60' E 012°45'0 0.0
2017-Feb-18 22:32N 55°60' E 012°45'0 0.0
2017-Feb-18 21:32N 55°60' E 012°45'0 0.0
2017-Feb-18 20:32N 55°60' E 012°45'0 0.0
2017-Feb-18 19:30N 55°60' E 012°45'1 0.2
2017-Feb-18 11:33N 56°00' E 012°43'8 3.9
2017-Feb-18 09:32N 56°06' E 012°33'1 0.8
2017-Feb-18 08:31N 56°06' E 012°34'6 6.4
2017-Feb-18 07:32N 56°01' E 012°42'2 2.1
2017-Feb-18 06:31N 55°60' E 012°45'0 0.0
2017-Feb-18 05:31N 55°60' E 012°45'0 0.0
2017-Feb-18 04:28N 55°60' E 012°45'0 0.0
2017-Feb-18 03:31N 55°60' E 012°45'0 0.0
2017-Feb-18 02:22N 55°60' E 012°45'0 0.0
2017-Feb-18 01:31N 55°60' E 012°45'0 0.0
2017-Feb-18 00:31N 55°60' E 012°45'0 0.0
2017-Feb-17 23:28N 55°60' E 012°45'0 0.0
2017-Feb-17 22:28N 55°60' E 012°45'0 0.0
2017-Feb-17 21:31N 55°60' E 012°45'0 0.0
2017-Feb-17 20:28N 55°60' E 012°45'0 0.0
2017-Feb-17 19:22N 55°60' E 012°45'0 0.0
2017-Feb-17 18:25N 55°60' E 012°45'0 0.0
2017-Feb-17 17:22N 55°60' E 012°45'0 0.0
2017-Feb-17 16:31N 55°60' E 012°45'0 0.0
2017-Feb-17 15:31N 55°60' E 012°45'0 0.0
2017-Feb-17 14:31N 55°60' E 012°45'0 0.0
2017-Feb-17 13:31N 55°60' E 012°45'0 0.0
2017-Feb-17 12:31N 55°60' E 012°45'1 0.6
2017-Feb-17 11:33N 55°60' E 012°44'  
Track history (hours):
 
Tides and Currents Weather Stations Pressure Air Temp Water Temp Dewpoint Dewpoint Depression Visibility Wind Speed Wind Dir Waves Ship Positions

Siam

Last reported at 2017-Feb-27 04:33 UTC. Time now 2017-Feb-27 04:36 UTC.
Position N 55°60' E 012°45'.

Length 22 m.

Type: Passenger vessel. MMSI: 265572320.

Date/timePositionNaut miles runAvg speedWind from/ knotsBaromVisibWave heightAir tempDewpointWater temp
2017-Feb-27 04:33N 55°60' E 012°45'0 0.0
2017-Feb-27 03:33N 55°60' E 012°45'0 0.0
2017-Feb-27 02:33N 55°60' E 012°45'0 0.0
2017-Feb-27 01:33N 55°60' E 012°45'0 0.0
2017-Feb-27 00:33N 55°60' E 012°45'0 0.0
2017-Feb-26 23:33N 55°60' E 012°45'0 0.0
2017-Feb-26 22:33N 55°60' E 012°45'0 0.0
2017-Feb-26 21:30N 55°60' E 012°45'0 0.0
2017-Feb-26 20:33N 55°60' E 012°45'0 0.0
2017-Feb-26 19:30N 55°60' E 012°45'0 0.0
2017-Feb-26 18:33N 55°60' E 012°45'0 0.0
2017-Feb-26 17:33N 55°60' E 012°45'0 0.0
2017-Feb-26 16:30N 55°60' E 012°45'0 0.0
2017-Feb-26 15:33N 55°60' E 012°45'0 0.0
2017-Feb-26 14:33N 55°60' E 012°45'3 2.9
2017-Feb-26 13:33N 56°02' E 012°41'2 1.6
2017-Feb-26 12:31N 56°03' E 012°39'0 0.1
2017-Feb-26 11:31N 56°03' E 012°39'3 2.8
2017-Feb-26 10:27N 56°05' E 012°36'4 1.4
2017-Feb-26 07:33N 56°02' E 012°41'3 3.4
2017-Feb-26 06:33N 55°60' E 012°45'0 0.0
2017-Feb-26 05:33N 55°60' E 012°45'0 0.0
2017-Feb-26 04:33N 55°60' E 012°45'0 0.0
2017-Feb-26 03:24N 55°60' E 012°45'0 0.0
2017-Feb-26 02:33N 55°60' E 012°45'0 0.0
2017-Feb-26 01:30N 55°60' E 012°45'0 0.0
2017-Feb-26 00:33N 55°60' E 012°45'0 0.0
2017-Feb-25 23:30N 55°60' E 012°45'0 0.0
2017-Feb-25 22:30N 55°60' E 012°45'0 0.0
2017-Feb-25 21:33N 55°60' E 012°45'0 0.0
2017-Feb-25 20:30N 55°60' E 012°45'0 0.0
2017-Feb-25 19:33N 55°60' E 012°45'0 0.0
2017-Feb-25 18:33N 55°60' E 012°45'0 0.0
2017-Feb-25 17:33N 55°60' E 012°45'0 0.0
2017-Feb-25 16:27N 55°60' E 012°45'0 0.0
2017-Feb-25 15:30N 55°60' E 012°45'0 0.0
2017-Feb-25 14:18N 55°60' E 012°45'2 2.3
2017-Feb-25 13:32N 56°00' E 012°42'0 0.4
2017-Feb-25 12:31N 55°60' E 012°42'3 3.0
2017-Feb-25 11:33N 55°57' E 012°42'2 2.1
2017-Feb-25 10:33N 55°57' E 012°38'4 4.1
2017-Feb-25 09:31N 56°01' E 012°42'0 0.2
2017-Feb-25 08:31N 56°00' E 012°42'2 1.8
2017-Feb-25 07:32N 55°60' E 012°45'0 0.0
2017-Feb-25 06:32N 55°60' E 012°45'0 0.0
2017-Feb-25 05:32N 55°60' E 012°45'0 0.0
2017-Feb-25 04:32N 55°60' E 012°45'0 0.0
2017-Feb-25 03:32N 55°60' E 012°45'0 0.0
2017-Feb-25 02:29N 55°60' E 012°45'0 0.0
2017-Feb-25 01:32N 55°60' E 012°45'0 0.0
2017-Feb-25 00:32N 55°60' E 012°45'0 0.0
2017-Feb-24 23:32N 55°60' E 012°45'0 0.0
2017-Feb-24 22:32N 55°60' E 012°45'0 0.0
2017-Feb-24 21:32N 55°60' E 012°45'0 0.0
2017-Feb-24 20:32N 55°60' E 012°45'0 0.0
2017-Feb-24 19:32N 55°60' E 012°45'0 0.0
2017-Feb-24 18:32N 55°60' E 012°45'2 0.4
2017-Feb-24 12:33N 55°58' E 012°43'2 1.7
2017-Feb-24 11:33N 55°59' E 012°42'0 0.3
2017-Feb-24 10:33N 55°59' E 012°42'1 1.0
2017-Feb-24 09:33N 55°58' E 012°43'0 0.4
2017-Feb-24 08:32N 55°59' E 012°42'1 0.0
2017-Feb-22 23:33N 55°60' E 012°45'0 0.0
2017-Feb-22 22:33N 55°60' E 012°45'0 0.0
2017-Feb-22 21:33N 55°60' E 012°45'0 0.0
2017-Feb-22 20:33N 55°60' E 012°45'0 0.0
2017-Feb-22 19:24N 55°60' E 012°45'0 0.0
2017-Feb-22 18:33N 55°60' E 012°45'0 0.0
2017-Feb-22 17:27N 55°60' E 012°45'0 0.0
2017-Feb-22 16:33N 55°60' E 012°45'0 0.0
2017-Feb-22 15:33N 55°60' E 012°45'0 0.0
2017-Feb-22 14:33N 55°60' E 012°45'0 0.0
2017-Feb-22 13:27N 55°60' E 012°45'0 0.0
2017-Feb-22 12:33N 55°60' E 012°45'0 0.0
2017-Feb-22 11:33N 55°60' E 012°45'0 0.0
2017-Feb-22 10:33N 55°60' E 012°45'0 0.0
2017-Feb-22 09:33N 55°60' E 012°45'0 0.0
2017-Feb-22 08:30N 55°60' E 012°45'0 0.0
2017-Feb-22 07:27N 55°60' E 012°45'0 0.0
2017-Feb-22 06:33N 55°60' E 012°45'0 0.0
2017-Feb-22 05:33N 55°60' E 012°45'0 0.0
2017-Feb-22 04:33N 55°60' E 012°45'0 0.0
2017-Feb-22 03:33N 55°60' E 012°45'0 0.0
2017-Feb-22 02:33N 55°60' E 012°45'0 0.0
2017-Feb-22 01:33N 55°60' E 012°45'0 0.0
2017-Feb-22 00:33N 55°60' E 012°45'0 0.0
2017-Feb-21 23:33N 55°60' E 012°45'0 0.0
2017-Feb-21 22:33N 55°60' E 012°45'0 0.0
2017-Feb-21 21:33N 55°60' E 012°45'0 0.0
2017-Feb-21 20:33N 55°60' E 012°45'0 0.0
2017-Feb-21 19:33N 55°60' E 012°45'0 0.0
2017-Feb-21 18:27N 55°60' E 012°45'0 0.0
2017-Feb-21 17:33N 55°60' E 012°45'0 0.0
2017-Feb-21 16:24N 55°60' E 012°45'0 0.0
2017-Feb-21 15:33N 55°60' E 012°45'0 0.0
2017-Feb-21 14:27N 55°60' E 012°45'0 0.0
2017-Feb-21 13:33N 55°60' E 012°45'0 0.0
2017-Feb-21 12:33N 55°60' E 012°45'0 0.0
2017-Feb-21 11:33N 55°60' E 012°45'0 0.0
2017-Feb-21 10:30N 55°60' E 012°45'0 0.0
2017-Feb-21 09:33N 55°60' E 012°45'0 0.0
2017-Feb-21 08:33N 55°60' E 012°45'0 0.0
2017-Feb-21 07:33N 55°60' E 012°45'0 0.0
2017-Feb-21 06:30N 55°60' E 012°45'0 0.0
2017-Feb-21 05:33N 55°60' E 012°45'0 0.0
2017-Feb-21 04:33N 55°60' E 012°45'0 0.0
2017-Feb-21 03:33N 55°60' E 012°45'0 0.0
2017-Feb-21 02:30N 55°60' E 012°45'0 0.0
2017-Feb-21 01:33N 55°60' E 012°45'0 0.0
2017-Feb-21 00:30N 55°60' E 012°45'0 0.0
2017-Feb-20 23:30N 55°60' E 012°45'0 0.0
2017-Feb-20 22:33N 55°60' E 012°45'0 0.0
2017-Feb-20 21:30N 55°60' E 012°45'0 0.0
2017-Feb-20 20:33N 55°60' E 012°45'0 0.0
2017-Feb-20 19:33N 55°60' E 012°45'0 0.0
2017-Feb-20 18:33N 55°60' E 012°45'0 0.0
2017-Feb-20 17:33N 55°60' E 012°45'0 0.0
2017-Feb-20 16:33N 55°60' E 012°45'0 0.0
2017-Feb-20 15:33N 55°60' E 012°45'4 3.8
2017-Feb-20 14:33N 55°59' E 012°38'0 0.3
2017-Feb-20 13:32N 55°59' E 012°37'0 0.3
2017-Feb-20 12:33N 55°58' E 012°37'4 4.4
2017-Feb-20 11:33N 55°60' E 012°45'0 0.0
2017-Feb-20 10:31N 55°60' E 012°45'0 0.0
2017-Feb-20 09:33N 55°60' E 012°45'0 0.0
2017-Feb-20 08:31N 55°60' E 012°45'0 0.0
2017-Feb-20 07:34N 55°60' E 012°45'0 0.0
2017-Feb-20 06:34N 55°60' E 012°45'0 0.0
2017-Feb-20 05:31N 55°60' E 012°45'0 0.0
2017-Feb-20 04:31N 55°60' E 012°45'0 0.0
2017-Feb-20 03:31N 55°60' E 012°45'0 0.0
2017-Feb-20 02:31N 55°60' E 012°45'0 0.0
2017-Feb-20 01:31N 55°60' E 012°45'0 0.0
2017-Feb-20 00:31N 55°60' E 012°45'0 0.0
2017-Feb-19 23:31N 55°60' E 012°45'0 0.0
2017-Feb-19 22:31N 55°60' E 012°45'0 0.0
2017-Feb-19 21:31N 55°60' E 012°45'0 0.0
2017-Feb-19 20:31N 55°60' E 012°45'0 0.0
2017-Feb-19 19:31N 55°60' E 012°45'0 0.0
2017-Feb-19 18:31N 55°60' E 012°45'0 0.0
2017-Feb-19 17:31N 55°60' E 012°45'0 0.0
2017-Feb-19 16:31N 55°60' E 012°45'0 0.0
2017-Feb-19 15:22N 55°60' E 012°45'0 0.0
2017-Feb-19 14:31N 55°60' E 012°45'0 0.0
2017-Feb-19 13:31N 55°60' E 012°45'0 0.0
2017-Feb-19 12:31N 55°60' E 012°45'0 0.0
2017-Feb-19 11:31N 55°60' E 012°45'6 5.9
2017-Feb-19 10:28N 55°53' E 012°45'3 3.6
2017-Feb-19 09:32N 55°50' E 012°46'0 0.5
2017-Feb-19 08:29N 55°50' E 012°46'6 6.8
2017-Feb-19 07:33N 55°56' E 012°44'4 3.7
2017-Feb-19 06:32N 55°60' E 012°45'0 0.0
2017-Feb-19 05:32N 55°60' E 012°45'0 0.0
2017-Feb-19 04:29N 55°60' E 012°45'0 0.0
2017-Feb-19 03:32N 55°60' E 012°45'0 0.0
2017-Feb-19 02:29N 55°60' E 012°45'0 0.0
2017-Feb-19 01:32N 55°60' E 012°45'0 0.0
2017-Feb-19 00:32N 55°60' E 012°45'0 0.0
2017-Feb-18 23:32N 55°60' E 012°45'0 0.0
2017-Feb-18 22:32N 55°60' E 012°45'0 0.0
2017-Feb-18 21:32N 55°60' E 012°45'0 0.0
2017-Feb-18 20:32N 55°60' E 012°45'0 0.0
2017-Feb-18 19:30N 55°60' E 012°45'1 0.2
2017-Feb-18 11:33N 56°00' E 012°43'8 3.9
2017-Feb-18 09:32N 56°06' E 012°33'1 0.8
2017-Feb-18 08:31N 56°06' E 012°34'6 6.4
2017-Feb-18 07:32N 56°01' E 012°42'2 2.1
2017-Feb-18 06:31N 55°60' E 012°45'0 0.0
2017-Feb-18 05:31N 55°60' E 012°45'0 0.0
2017-Feb-18 04:28N 55°60' E 012°45'0 0.0
2017-Feb-18 03:31N 55°60' E 012°45'0 0.0
2017-Feb-18 02:22N 55°60' E 012°45'0 0.0
2017-Feb-18 01:31N 55°60' E 012°45'0 0.0
2017-Feb-18 00:31N 55°60' E 012°45'0 0.0
2017-Feb-17 23:28N 55°60' E 012°45'0 0.0
2017-Feb-17 22:28N 55°60' E 012°45'0 0.0
2017-Feb-17 21:31N 55°60' E 012°45'0 0.0
2017-Feb-17 20:28N 55°60' E 012°45'0 0.0
2017-Feb-17 19:22N 55°60' E 012°45'0 0.0
2017-Feb-17 18:25N 55°60' E 012°45'0 0.0
2017-Feb-17 17:22N 55°60' E 012°45'0 0.0
2017-Feb-17 16:31N 55°60' E 012°45'0 0.0
2017-Feb-17 15:31N 55°60' E 012°45'0 0.0
2017-Feb-17 14:31N 55°60' E 012°45'0 0.0
2017-Feb-17 13:31N 55°60' E 012°45'0 0.0
2017-Feb-17 12:31N 55°60' E 012°45'1 0.6
2017-Feb-17 11:33N 55°60' E 012°44'  

Dump ship's entire track history